sensor_id;sensor_type;location;lat;lon;timestamp;temperature;humidity
38183;DHT22;23991;52.430;10.586;2022-08-14T00:00:46;23.20;70.40
38183;DHT22;23991;52.430;10.586;2022-08-14T00:03:25;23.20;70.20
38183;DHT22;23991;52.430;10.586;2022-08-14T00:05:51;23.20;70.20
38183;DHT22;23991;52.430;10.586;2022-08-14T00:08:17;23.20;70.80
38183;DHT22;23991;52.430;10.586;2022-08-14T00:10:43;23.20;71.10
38183;DHT22;23991;52.430;10.586;2022-08-14T00:13:09;23.20;71.70
38183;DHT22;23991;52.430;10.586;2022-08-14T00:15:38;23.20;72.00
38183;DHT22;23991;52.430;10.586;2022-08-14T00:18:07;23.20;72.30
38183;DHT22;23991;52.430;10.586;2022-08-14T00:20:35;23.10;72.10
38183;DHT22;23991;52.430;10.586;2022-08-14T00:23:03;23.10;72.40
38183;DHT22;23991;52.430;10.586;2022-08-14T00:25:29;23.00;71.90
38183;DHT22;23991;52.430;10.586;2022-08-14T00:27:55;23.00;72.20
38183;DHT22;23991;52.430;10.586;2022-08-14T00:30:21;23.00;72.80
38183;DHT22;23991;52.430;10.586;2022-08-14T00:32:47;23.00;72.90
38183;DHT22;23991;52.430;10.586;2022-08-14T00:35:13;23.00;73.30
38183;DHT22;23991;52.430;10.586;2022-08-14T00:37:41;23.00;73.80
38183;DHT22;23991;52.430;10.586;2022-08-14T00:40:10;22.90;74.00
38183;DHT22;23991;52.430;10.586;2022-08-14T00:42:35;22.90;74.40
38183;DHT22;23991;52.430;10.586;2022-08-14T00:45:02;22.80;74.50
38183;DHT22;23991;52.430;10.586;2022-08-14T00:47:28;22.80;74.80
38183;DHT22;23991;52.430;10.586;2022-08-14T00:49:53;22.80;74.90
38183;DHT22;23991;52.430;10.586;2022-08-14T00:52:21;22.80;75.00
38183;DHT22;23991;52.430;10.586;2022-08-14T00:54:48;22.80;75.20
38183;DHT22;23991;52.430;10.586;2022-08-14T00:57:23;22.80;75.40
38183;DHT22;23991;52.430;10.586;2022-08-14T00:59:49;22.70;76.10
38183;DHT22;23991;52.430;10.586;2022-08-14T01:02:17;22.70;76.00
38183;DHT22;23991;52.430;10.586;2022-08-14T01:04:44;22.70;75.90
38183;DHT22;23991;52.430;10.586;2022-08-14T01:07:11;22.80;76.30
38183;DHT22;23991;52.430;10.586;2022-08-14T01:09:37;22.70;76.50
38183;DHT22;23991;52.430;10.586;2022-08-14T01:12:04;22.70;76.40
38183;DHT22;23991;52.430;10.586;2022-08-14T01:14:30;22.70;76.40
38183;DHT22;23991;52.430;10.586;2022-08-14T01:16:56;22.70;76.30
38183;DHT22;23991;52.430;10.586;2022-08-14T01:19:23;22.60;76.30
38183;DHT22;23991;52.430;10.586;2022-08-14T01:22:09;22.60;76.00
38183;DHT22;23991;52.430;10.586;2022-08-14T01:24:35;22.60;76.30
38183;DHT22;23991;52.430;10.586;2022-08-14T01:27:01;22.50;76.50
38183;DHT22;23991;52.430;10.586;2022-08-14T01:29:30;22.60;76.50
38183;DHT22;23991;52.430;10.586;2022-08-14T01:32:03;22.50;76.70
38183;DHT22;23991;52.430;10.586;2022-08-14T01:34:29;22.50;76.70
38183;DHT22;23991;52.430;10.586;2022-08-14T01:36:58;22.50;76.60
38183;DHT22;23991;52.430;10.586;2022-08-14T01:39:24;22.50;76.60
38183;DHT22;23991;52.430;10.586;2022-08-14T01:41:50;22.50;76.40
38183;DHT22;23991;52.430;10.586;2022-08-14T01:44:23;22.50;76.20
38183;DHT22;23991;52.430;10.586;2022-08-14T01:46:56;22.50;76.10
38183;DHT22;23991;52.430;10.586;2022-08-14T01:49:23;22.50;75.90
38183;DHT22;23991;52.430;10.586;2022-08-14T01:51:49;22.50;76.10
38183;DHT22;23991;52.430;10.586;2022-08-14T01:54:18;22.50;76.30
38183;DHT22;23991;52.430;10.586;2022-08-14T01:56:50;22.40;76.50
38183;DHT22;23991;52.430;10.586;2022-08-14T02:01:42;22.30;77.30
38183;DHT22;23991;52.430;10.586;2022-08-14T02:04:11;22.40;77.50
38183;DHT22;23991;52.430;10.586;2022-08-14T02:06:37;22.30;77.50
38183;DHT22;23991;52.430;10.586;2022-08-14T02:09:07;22.20;77.80
38183;DHT22;23991;52.430;10.586;2022-08-14T02:11:33;22.20;77.70
38183;DHT22;23991;52.430;10.586;2022-08-14T02:14:06;22.20;77.70
38183;DHT22;23991;52.430;10.586;2022-08-14T02:16:34;22.20;78.10
38183;DHT22;23991;52.430;10.586;2022-08-14T02:19:05;22.20;78.10
38183;DHT22;23991;52.430;10.586;2022-08-14T02:21:32;22.20;78.10
38183;DHT22;23991;52.430;10.586;2022-08-14T02:23:59;22.20;78.10
38183;DHT22;23991;52.430;10.586;2022-08-14T02:26:29;22.20;78.30
38183;DHT22;23991;52.430;10.586;2022-08-14T02:28:59;22.10;78.40
38183;DHT22;23991;52.430;10.586;2022-08-14T02:31:27;22.10;78.60
38183;DHT22;23991;52.430;10.586;2022-08-14T02:34:02;22.10;78.40
38183;DHT22;23991;52.430;10.586;2022-08-14T02:36:28;22.10;78.20
38183;DHT22;23991;52.430;10.586;2022-08-14T02:38:54;22.10;78.60
38183;DHT22;23991;52.430;10.586;2022-08-14T02:41:19;22.10;78.50
38183;DHT22;23991;52.430;10.586;2022-08-14T02:43:45;22.00;78.20
38183;DHT22;23991;52.430;10.586;2022-08-14T02:46:11;22.00;78.30
38183;DHT22;23991;52.430;10.586;2022-08-14T02:48:41;22.00;78.30
38183;DHT22;23991;52.430;10.586;2022-08-14T02:51:12;22.00;78.50
38183;DHT22;23991;52.430;10.586;2022-08-14T02:53:44;22.00;78.50
38183;DHT22;23991;52.430;10.586;2022-08-14T02:56:11;22.00;78.60
38183;DHT22;23991;52.430;10.586;2022-08-14T02:58:43;22.00;78.80
38183;DHT22;23991;52.430;10.586;2022-08-14T03:01:09;22.00;78.80
38183;DHT22;23991;52.430;10.586;2022-08-14T03:03:36;22.00;78.80
38183;DHT22;23991;52.430;10.586;2022-08-14T03:06:07;21.90;78.90
38183;DHT22;23991;52.430;10.586;2022-08-14T03:08:35;21.90;78.70
38183;DHT22;23991;52.430;10.586;2022-08-14T03:11:06;21.90;79.10
38183;DHT22;23991;52.430;10.586;2022-08-14T03:13:35;21.80;79.00
38183;DHT22;23991;52.430;10.586;2022-08-14T03:16:06;21.90;79.00
38183;DHT22;23991;52.430;10.586;2022-08-14T03:18:32;21.80;79.20
38183;DHT22;23991;52.430;10.586;2022-08-14T03:21:04;21.80;79.10
38183;DHT22;23991;52.430;10.586;2022-08-14T03:23:30;21.80;79.00
38183;DHT22;23991;52.430;10.586;2022-08-14T03:25:59;21.80;79.00
38183;DHT22;23991;52.430;10.586;2022-08-14T03:28:25;21.80;78.80
38183;DHT22;23991;52.430;10.586;2022-08-14T03:30:54;21.80;78.80
38183;DHT22;23991;52.430;10.586;2022-08-14T03:33:20;21.80;78.70
38183;DHT22;23991;52.430;10.586;2022-08-14T03:35:45;21.80;78.60
38183;DHT22;23991;52.430;10.586;2022-08-14T03:38:12;21.80;78.40
38183;DHT22;23991;52.430;10.586;2022-08-14T03:40:39;21.70;78.50
38183;DHT22;23991;52.430;10.586;2022-08-14T03:43:08;21.80;78.60
38183;DHT22;23991;52.430;10.586;2022-08-14T03:45:36;21.80;78.70
38183;DHT22;23991;52.430;10.586;2022-08-14T03:48:14;21.70;78.70
38183;DHT22;23991;52.430;10.586;2022-08-14T03:50:44;21.70;78.70
38183;DHT22;23991;52.430;10.586;2022-08-14T03:53:10;21.70;78.70
38183;DHT22;23991;52.430;10.586;2022-08-14T03:55:37;21.70;78.80
38183;DHT22;23991;52.430;10.586;2022-08-14T03:58:05;21.70;78.90
38183;DHT22;23991;52.430;10.586;2022-08-14T04:00:31;21.70;78.80
38183;DHT22;23991;52.430;10.586;2022-08-14T04:02:56;21.60;78.60
38183;DHT22;23991;52.430;10.586;2022-08-14T04:05:22;21.70;78.70
38183;DHT22;23991;52.430;10.586;2022-08-14T04:07:48;21.70;78.70
38183;DHT22;23991;52.430;10.586;2022-08-14T04:10:13;21.60;78.80
38183;DHT22;23991;52.430;10.586;2022-08-14T04:12:39;21.60;78.80
38183;DHT22;23991;52.430;10.586;2022-08-14T04:15:06;21.70;78.90
38183;DHT22;23991;52.430;10.586;2022-08-14T04:17:31;21.60;78.90
38183;DHT22;23991;52.430;10.586;2022-08-14T04:19:58;21.60;78.70
38183;DHT22;23991;52.430;10.586;2022-08-14T04:22:29;21.70;78.80
38183;DHT22;23991;52.430;10.586;2022-08-14T04:24:56;21.70;78.70
38183;DHT22;23991;52.430;10.586;2022-08-14T04:27:23;21.70;78.40
38183;DHT22;23991;52.430;10.586;2022-08-14T04:29:49;21.80;78.30
38183;DHT22;23991;52.430;10.586;2022-08-14T04:32:14;21.80;78.00
38183;DHT22;23991;52.430;10.586;2022-08-14T04:34:40;21.80;77.80
38183;DHT22;23991;52.430;10.586;2022-08-14T04:37:09;22.00;77.80
38183;DHT22;23991;52.430;10.586;2022-08-14T04:39:54;22.00;77.50
38183;DHT22;23991;52.430;10.586;2022-08-14T04:42:46;22.10;77.30
38183;DHT22;23991;52.430;10.586;2022-08-14T04:45:30;22.10;77.30
38183;DHT22;23991;52.430;10.586;2022-08-14T04:48:16;22.20;77.00
38183;DHT22;23991;52.430;10.586;2022-08-14T04:50:48;22.20;76.90
38183;DHT22;23991;52.430;10.586;2022-08-14T04:53:19;22.30;76.80
38183;DHT22;23991;52.430;10.586;2022-08-14T04:55:47;22.30;76.70
38183;DHT22;23991;52.430;10.586;2022-08-14T04:58:17;22.40;76.70
38183;DHT22;23991;52.430;10.586;2022-08-14T05:00:43;22.50;76.50
38183;DHT22;23991;52.430;10.586;2022-08-14T05:03:09;22.60;76.40
38183;DHT22;23991;52.430;10.586;2022-08-14T05:05:35;22.60;76.30
38183;DHT22;23991;52.430;10.586;2022-08-14T05:08:09;22.70;76.30
38183;DHT22;23991;52.430;10.586;2022-08-14T05:10:39;22.80;76.30
38183;DHT22;23991;52.430;10.586;2022-08-14T05:13:05;22.80;76.10
38183;DHT22;23991;52.430;10.586;2022-08-14T05:15:32;22.90;76.00
38183;DHT22;23991;52.430;10.586;2022-08-14T05:18:02;23.00;76.10
38183;DHT22;23991;52.430;10.586;2022-08-14T05:20:27;23.10;75.90
38183;DHT22;23991;52.430;10.586;2022-08-14T05:22:53;23.20;75.80
38183;DHT22;23991;52.430;10.586;2022-08-14T05:25:20;23.20;75.40
38183;DHT22;23991;52.430;10.586;2022-08-14T05:27:45;23.30;74.90
38183;DHT22;23991;52.430;10.586;2022-08-14T05:30:11;23.30;74.70
38183;DHT22;23991;52.430;10.586;2022-08-14T05:32:37;23.40;74.50
38183;DHT22;23991;52.430;10.586;2022-08-14T05:35:03;23.40;74.40
38183;DHT22;23991;52.430;10.586;2022-08-14T05:37:29;23.50;74.20
38183;DHT22;23991;52.430;10.586;2022-08-14T05:39:55;23.60;73.90
38183;DHT22;23991;52.430;10.586;2022-08-14T05:42:21;23.70;73.20
38183;DHT22;23991;52.430;10.586;2022-08-14T05:44:47;23.80;72.70
38183;DHT22;23991;52.430;10.586;2022-08-14T05:47:12;23.90;72.90
38183;DHT22;23991;52.430;10.586;2022-08-14T05:49:38;24.00;72.00
38183;DHT22;23991;52.430;10.586;2022-08-14T05:52:04;24.00;72.00
38183;DHT22;23991;52.430;10.586;2022-08-14T05:54:30;24.10;71.60
38183;DHT22;23991;52.430;10.586;2022-08-14T05:56:56;24.20;71.50
38183;DHT22;23991;52.430;10.586;2022-08-14T05:59:22;24.20;71.20
38183;DHT22;23991;52.430;10.586;2022-08-14T06:01:47;24.30;70.70
38183;DHT22;23991;52.430;10.586;2022-08-14T06:04:13;24.40;70.40
38183;DHT22;23991;52.430;10.586;2022-08-14T06:06:39;24.60;70.10
38183;DHT22;23991;52.430;10.586;2022-08-14T06:09:05;24.70;69.90
38183;DHT22;23991;52.430;10.586;2022-08-14T06:11:33;24.70;69.50
38183;DHT22;23991;52.430;10.586;2022-08-14T06:13:59;24.90;69.30
38183;DHT22;23991;52.430;10.586;2022-08-14T06:16:24;25.00;69.10
38183;DHT22;23991;52.430;10.586;2022-08-14T06:18:50;25.00;68.90
38183;DHT22;23991;52.430;10.586;2022-08-14T06:21:16;25.10;69.20
38183;DHT22;23991;52.430;10.586;2022-08-14T06:23:42;25.20;68.80
38183;DHT22;23991;52.430;10.586;2022-08-14T06:26:07;25.30;68.10
38183;DHT22;23991;52.430;10.586;2022-08-14T06:28:34;25.50;67.30
38183;DHT22;23991;52.430;10.586;2022-08-14T06:31:01;25.70;66.30
38183;DHT22;23991;52.430;10.586;2022-08-14T06:33:26;25.80;65.60
38183;DHT22;23991;52.430;10.586;2022-08-14T06:35:52;25.90;66.50
38183;DHT22;23991;52.430;10.586;2022-08-14T06:38:20;25.90;66.00
38183;DHT22;23991;52.430;10.586;2022-08-14T06:40:46;26.10;65.20
38183;DHT22;23991;52.430;10.586;2022-08-14T06:43:13;26.20;64.30
38183;DHT22;23991;52.430;10.586;2022-08-14T06:45:41;26.10;64.30
38183;DHT22;23991;52.430;10.586;2022-08-14T06:48:18;26.20;63.90
38183;DHT22;23991;52.430;10.586;2022-08-14T06:50:45;26.40;63.50
38183;DHT22;23991;52.430;10.586;2022-08-14T06:53:11;26.60;62.30
38183;DHT22;23991;52.430;10.586;2022-08-14T06:55:42;26.70;62.10
38183;DHT22;23991;52.430;10.586;2022-08-14T06:58:12;26.80;62.60
38183;DHT22;23991;52.430;10.586;2022-08-14T07:00:38;26.90;61.80
38183;DHT22;23991;52.430;10.586;2022-08-14T07:03:03;27.20;61.20
38183;DHT22;23991;52.430;10.586;2022-08-14T07:05:47;27.20;60.60
38183;DHT22;23991;52.430;10.586;2022-08-14T07:08:25;27.40;59.80
38183;DHT22;23991;52.430;10.586;2022-08-14T07:10:53;27.60;59.60
38183;DHT22;23991;52.430;10.586;2022-08-14T07:13:19;27.70;59.50
38183;DHT22;23991;52.430;10.586;2022-08-14T07:15:47;27.70;59.20
38183;DHT22;23991;52.430;10.586;2022-08-14T07:18:39;28.00;58.30
38183;DHT22;23991;52.430;10.586;2022-08-14T07:21:05;28.20;57.80
38183;DHT22;23991;52.430;10.586;2022-08-14T07:23:31;28.50;57.50
38183;DHT22;23991;52.430;10.586;2022-08-14T07:25:58;28.70;56.10
38183;DHT22;23991;52.430;10.586;2022-08-14T07:28:27;28.80;55.60
38183;DHT22;23991;52.430;10.586;2022-08-14T07:30:54;28.80;55.60
38183;DHT22;23991;52.430;10.586;2022-08-14T07:33:28;29.00;55.20
38183;DHT22;23991;52.430;10.586;2022-08-14T07:35:56;29.20;55.30
38183;DHT22;23991;52.430;10.586;2022-08-14T07:38:23;29.50;54.30
38183;DHT22;23991;52.430;10.586;2022-08-14T07:40:49;29.80;52.70
38183;DHT22;23991;52.430;10.586;2022-08-14T07:43:15;30.20;52.00
38183;DHT22;23991;52.430;10.586;2022-08-14T07:45:41;30.40;52.10
38183;DHT22;23991;52.430;10.586;2022-08-14T07:48:07;30.70;50.30
38183;DHT22;23991;52.430;10.586;2022-08-14T07:50:34;31.00;49.80
38183;DHT22;23991;52.430;10.586;2022-08-14T07:53:00;31.20;50.10
38183;DHT22;23991;52.430;10.586;2022-08-14T07:55:26;31.20;49.30
38183;DHT22;23991;52.430;10.586;2022-08-14T07:57:52;31.40;48.60
38183;DHT22;23991;52.430;10.586;2022-08-14T08:00:21;31.90;47.50
38183;DHT22;23991;52.430;10.586;2022-08-14T08:02:51;32.10;47.50
38183;DHT22;23991;52.430;10.586;2022-08-14T08:05:18;32.60;46.40
38183;DHT22;23991;52.430;10.586;2022-08-14T08:07:45;32.90;45.70
38183;DHT22;23991;52.430;10.586;2022-08-14T08:10:16;33.20;44.30
38183;DHT22;23991;52.430;10.586;2022-08-14T08:13:03;33.30;44.20
38183;DHT22;23991;52.430;10.586;2022-08-14T08:15:31;33.70;44.00
38183;DHT22;23991;52.430;10.586;2022-08-14T08:17:58;34.00;42.60
38183;DHT22;23991;52.430;10.586;2022-08-14T08:20:25;34.20;42.00
38183;DHT22;23991;52.430;10.586;2022-08-14T08:22:52;34.30;42.00
38183;DHT22;23991;52.430;10.586;2022-08-14T08:25:22;34.40;41.60
38183;DHT22;23991;52.430;10.586;2022-08-14T08:28:05;34.40;41.20
38183;DHT22;23991;52.430;10.586;2022-08-14T08:30:37;34.90;40.60
38183;DHT22;23991;52.430;10.586;2022-08-14T08:33:04;34.90;40.10
38183;DHT22;23991;52.430;10.586;2022-08-14T08:35:33;35.10;40.10
38183;DHT22;23991;52.430;10.586;2022-08-14T08:38:08;35.40;38.10
38183;DHT22;23991;52.430;10.586;2022-08-14T08:40:38;35.60;38.30
38183;DHT22;23991;52.430;10.586;2022-08-14T08:43:07;35.80;37.80
38183;DHT22;23991;52.430;10.586;2022-08-14T08:45:35;36.00;37.60
38183;DHT22;23991;52.430;10.586;2022-08-14T08:48:02;36.40;36.50
38183;DHT22;23991;52.430;10.586;2022-08-14T08:50:36;36.30;37.20
38183;DHT22;23991;52.430;10.586;2022-08-14T08:53:08;36.60;36.50
38183;DHT22;23991;52.430;10.586;2022-08-14T08:58:16;36.60;36.20
38183;DHT22;23991;52.430;10.586;2022-08-14T09:00:46;36.60;36.60
38183;DHT22;23991;52.430;10.586;2022-08-14T09:03:15;36.90;35.30
38183;DHT22;23991;52.430;10.586;2022-08-14T09:05:51;36.70;35.80
38183;DHT22;23991;52.430;10.586;2022-08-14T09:08:22;36.50;36.40
38183;DHT22;23991;52.430;10.586;2022-08-14T09:10:52;36.40;35.90
38183;DHT22;23991;52.430;10.586;2022-08-14T09:13:18;36.60;35.80
38183;DHT22;23991;52.430;10.586;2022-08-14T09:15:46;36.90;35.70
38183;DHT22;23991;52.430;10.586;2022-08-14T09:18:14;37.20;34.80
38183;DHT22;23991;52.430;10.586;2022-08-14T09:20:43;37.40;34.20
38183;DHT22;23991;52.430;10.586;2022-08-14T09:23:10;37.40;34.10
38183;DHT22;23991;52.430;10.586;2022-08-14T09:25:37;37.80;33.20
38183;DHT22;23991;52.430;10.586;2022-08-14T09:28:04;38.10;32.60
38183;DHT22;23991;52.430;10.586;2022-08-14T09:30:31;38.20;33.10
38183;DHT22;23991;52.430;10.586;2022-08-14T09:38:50;38.90;32.10
38183;DHT22;23991;52.430;10.586;2022-08-14T09:41:33;38.40;32.00
38183;DHT22;23991;52.430;10.586;2022-08-14T09:44:54;38.40;32.30
38183;DHT22;23991;52.430;10.586;2022-08-14T09:46:55;38.60;32.20
38183;DHT22;23991;52.430;10.586;2022-08-14T09:49:50;39.10;31.50
38183;DHT22;23991;52.430;10.586;2022-08-14T09:52:17;39.50;30.60
38183;DHT22;23991;52.430;10.586;2022-08-14T09:54:45;39.50;30.90
38183;DHT22;23991;52.430;10.586;2022-08-14T09:57:23;40.10;30.30
38183;DHT22;23991;52.430;10.586;2022-08-14T09:59:50;40.60;29.80
38183;DHT22;23991;52.430;10.586;2022-08-14T10:02:22;40.70;29.10
38183;DHT22;23991;52.430;10.586;2022-08-14T10:07:32;41.00;29.00
38183;DHT22;23991;52.430;10.586;2022-08-14T10:09:58;40.70;29.20
38183;DHT22;23991;52.430;10.586;2022-08-14T10:12:26;41.10;28.90
38183;DHT22;23991;52.430;10.586;2022-08-14T10:14:52;41.30;28.30
38183;DHT22;23991;52.430;10.586;2022-08-14T10:17:22;41.60;27.70
38183;DHT22;23991;52.430;10.586;2022-08-14T10:19:51;41.50;27.90
38183;DHT22;23991;52.430;10.586;2022-08-14T10:22:24;41.30;28.50
38183;DHT22;23991;52.430;10.586;2022-08-14T10:24:54;41.60;28.10
38183;DHT22;23991;52.430;10.586;2022-08-14T10:27:24;41.60;27.90
38183;DHT22;23991;52.430;10.586;2022-08-14T10:29:57;42.00;27.60
38183;DHT22;23991;52.430;10.586;2022-08-14T10:32:28;42.00;27.40
38183;DHT22;23991;52.430;10.586;2022-08-14T10:35:08;42.00;27.60
38183;DHT22;23991;52.430;10.586;2022-08-14T10:37:40;42.10;27.10
38183;DHT22;23991;52.430;10.586;2022-08-14T10:40:07;42.30;26.00
38183;DHT22;23991;52.430;10.586;2022-08-14T10:42:38;42.60;26.00
38183;DHT22;23991;52.430;10.586;2022-08-14T10:45:16;42.50;26.20
38183;DHT22;23991;52.430;10.586;2022-08-14T10:47:44;42.60;25.80
38183;DHT22;23991;52.430;10.586;2022-08-14T10:50:10;42.60;25.70
38183;DHT22;23991;52.430;10.586;2022-08-14T10:52:35;42.90;24.80
38183;DHT22;23991;52.430;10.586;2022-08-14T10:57:33;42.50;26.10
38183;DHT22;23991;52.430;10.586;2022-08-14T11:00:12;42.70;26.30
38183;DHT22;23991;52.430;10.586;2022-08-14T11:02:39;43.10;26.40
38183;DHT22;23991;52.430;10.586;2022-08-14T11:05:16;43.70;25.00
38183;DHT22;23991;52.430;10.586;2022-08-14T11:10:22;43.80;24.40
38183;DHT22;23991;52.430;10.586;2022-08-14T11:12:49;43.80;24.60
38183;DHT22;23991;52.430;10.586;2022-08-14T11:15:20;43.80;24.70
38183;DHT22;23991;52.430;10.586;2022-08-14T11:17:47;44.00;25.00
38183;DHT22;23991;52.430;10.586;2022-08-14T11:20:15;44.10;25.20
38183;DHT22;23991;52.430;10.586;2022-08-14T11:22:41;44.20;25.20
38183;DHT22;23991;52.430;10.586;2022-08-14T11:25:12;44.20;23.10
38183;DHT22;23991;52.430;10.586;2022-08-14T11:27:44;44.20;22.60
38183;DHT22;23991;52.430;10.586;2022-08-14T11:30:13;43.90;23.30
38183;DHT22;23991;52.430;10.586;2022-08-14T11:32:39;43.40;24.80
38183;DHT22;23991;52.430;10.586;2022-08-14T11:35:10;43.30;25.70
38183;DHT22;23991;52.430;10.586;2022-08-14T11:37:36;43.30;25.60
38183;DHT22;23991;52.430;10.586;2022-08-14T11:40:03;42.60;26.20
38183;DHT22;23991;52.430;10.586;2022-08-14T11:42:29;42.60;26.30
38183;DHT22;23991;52.430;10.586;2022-08-14T11:44:59;42.90;25.60
38183;DHT22;23991;52.430;10.586;2022-08-14T11:47:27;42.90;25.90
38183;DHT22;23991;52.430;10.586;2022-08-14T11:49:56;43.30;26.10
38183;DHT22;23991;52.430;10.586;2022-08-14T11:52:32;43.50;25.80
38183;DHT22;23991;52.430;10.586;2022-08-14T11:54:58;43.70;25.90
38183;DHT22;23991;52.430;10.586;2022-08-14T11:57:25;43.80;25.80
38183;DHT22;23991;52.430;10.586;2022-08-14T12:00:04;43.70;25.70
38183;DHT22;23991;52.430;10.586;2022-08-14T12:02:30;43.70;25.40
38183;DHT22;23991;52.430;10.586;2022-08-14T12:04:56;44.00;24.30
38183;DHT22;23991;52.430;10.586;2022-08-14T12:07:22;44.20;24.40
38183;DHT22;23991;52.430;10.586;2022-08-14T12:09:52;44.30;24.30
38183;DHT22;23991;52.430;10.586;2022-08-14T12:12:23;44.50;24.10
38183;DHT22;23991;52.430;10.586;2022-08-14T12:14:51;44.60;23.70
38183;DHT22;23991;52.430;10.586;2022-08-14T12:17:21;44.70;24.00
38183;DHT22;23991;52.430;10.586;2022-08-14T12:19:57;44.80;23.90
38183;DHT22;23991;52.430;10.586;2022-08-14T12:22:40;44.60;23.60
38183;DHT22;23991;52.430;10.586;2022-08-14T12:25:09;44.70;23.70
38183;DHT22;23991;52.430;10.586;2022-08-14T12:27:44;44.80;23.70
38183;DHT22;23991;52.430;10.586;2022-08-14T12:33:01;44.10;24.30
38183;DHT22;23991;52.430;10.586;2022-08-14T12:38:02;43.70;24.70
38183;DHT22;23991;52.430;10.586;2022-08-14T12:40:29;44.00;24.00
38183;DHT22;23991;52.430;10.586;2022-08-14T12:43:00;43.80;24.50
38183;DHT22;23991;52.430;10.586;2022-08-14T12:45:32;44.00;24.40
38183;DHT22;23991;52.430;10.586;2022-08-14T12:48:00;44.00;24.50
38183;DHT22;23991;52.430;10.586;2022-08-14T12:50:40;44.10;24.10
38183;DHT22;23991;52.430;10.586;2022-08-14T12:53:07;43.70;24.30
38183;DHT22;23991;52.430;10.586;2022-08-14T12:55:34;42.90;25.10
38183;DHT22;23991;52.430;10.586;2022-08-14T12:58:02;42.90;25.30
38183;DHT22;23991;52.430;10.586;2022-08-14T13:00:31;42.80;25.10
38183;DHT22;23991;52.430;10.586;2022-08-14T13:02:57;42.20;25.50
38183;DHT22;23991;52.430;10.586;2022-08-14T13:05:33;41.60;26.20
38183;DHT22;23991;52.430;10.586;2022-08-14T13:08:04;41.60;26.20
38183;DHT22;23991;52.430;10.586;2022-08-14T13:10:32;41.60;26.30
38183;DHT22;23991;52.430;10.586;2022-08-14T13:12:58;41.60;26.20
38183;DHT22;23991;52.430;10.586;2022-08-14T13:15:24;41.90;26.30
38183;DHT22;23991;52.430;10.586;2022-08-14T13:17:53;42.10;25.70
38183;DHT22;23991;52.430;10.586;2022-08-14T13:20:23;42.60;25.50
38183;DHT22;23991;52.430;10.586;2022-08-14T13:22:49;42.90;24.80
38183;DHT22;23991;52.430;10.586;2022-08-14T13:25:18;42.80;23.50
38183;DHT22;23991;52.430;10.586;2022-08-14T13:27:47;42.60;23.20
38183;DHT22;23991;52.430;10.586;2022-08-14T13:30:13;42.20;23.80
38183;DHT22;23991;52.430;10.586;2022-08-14T13:32:39;42.10;23.80
38183;DHT22;23991;52.430;10.586;2022-08-14T13:35:12;41.70;23.90
38183;DHT22;23991;52.430;10.586;2022-08-14T13:37:41;41.50;24.30
38183;DHT22;23991;52.430;10.586;2022-08-14T13:40:07;41.30;24.40
38183;DHT22;23991;52.430;10.586;2022-08-14T13:42:33;41.10;24.50
38183;DHT22;23991;52.430;10.586;2022-08-14T13:45:03;40.60;25.80
38183;DHT22;23991;52.430;10.586;2022-08-14T13:47:31;40.60;26.40
38183;DHT22;23991;52.430;10.586;2022-08-14T13:49:59;40.70;26.20
38183;DHT22;23991;52.430;10.586;2022-08-14T13:52:32;40.80;26.10
38183;DHT22;23991;52.430;10.586;2022-08-14T13:55:02;41.00;25.80
38183;DHT22;23991;52.430;10.586;2022-08-14T13:57:31;41.30;25.00
38183;DHT22;23991;52.430;10.586;2022-08-14T14:00:01;41.70;24.30
38183;DHT22;23991;52.430;10.586;2022-08-14T14:02:31;42.20;23.90
38183;DHT22;23991;52.430;10.586;2022-08-14T14:04:59;42.20;24.10
38183;DHT22;23991;52.430;10.586;2022-08-14T14:07:27;42.00;24.60
38183;DHT22;23991;52.430;10.586;2022-08-14T14:09:54;42.20;24.50
38183;DHT22;23991;52.430;10.586;2022-08-14T14:12:22;42.30;22.70
38183;DHT22;23991;52.430;10.586;2022-08-14T14:14:50;42.30;23.10
38183;DHT22;23991;52.430;10.586;2022-08-14T14:17:17;42.60;23.00
38183;DHT22;23991;52.430;10.586;2022-08-14T14:19:50;42.60;22.90
38183;DHT22;23991;52.430;10.586;2022-08-14T14:22:16;42.80;22.80
38183;DHT22;23991;52.430;10.586;2022-08-14T14:24:43;42.60;22.90
38183;DHT22;23991;52.430;10.586;2022-08-14T14:27:09;42.30;22.70
38183;DHT22;23991;52.430;10.586;2022-08-14T14:29:39;42.00;23.10
38183;DHT22;23991;52.430;10.586;2022-08-14T14:32:07;42.10;23.20
38183;DHT22;23991;52.430;10.586;2022-08-14T14:34:34;42.00;23.10
38183;DHT22;23991;52.430;10.586;2022-08-14T14:37:02;41.70;23.30
38183;DHT22;23991;52.430;10.586;2022-08-14T14:39:30;41.50;23.30
38183;DHT22;23991;52.430;10.586;2022-08-14T14:41:57;41.10;23.80
38183;DHT22;23991;52.430;10.586;2022-08-14T14:44:34;41.20;23.90
38183;DHT22;23991;52.430;10.586;2022-08-14T14:47:07;41.00;23.90
38183;DHT22;23991;52.430;10.586;2022-08-14T14:49:33;40.80;24.50
38183;DHT22;23991;52.430;10.586;2022-08-14T14:51:58;40.50;25.10
38183;DHT22;23991;52.430;10.586;2022-08-14T14:54:24;40.10;26.20
38183;DHT22;23991;52.430;10.586;2022-08-14T14:56:52;40.00;26.40
38183;DHT22;23991;52.430;10.586;2022-08-14T14:59:18;39.60;26.30
38183;DHT22;23991;52.430;10.586;2022-08-14T15:01:47;39.50;25.60
38183;DHT22;23991;52.430;10.586;2022-08-14T15:04:13;39.10;25.90
38183;DHT22;23991;52.430;10.586;2022-08-14T15:06:39;39.10;25.90
38183;DHT22;23991;52.430;10.586;2022-08-14T15:09:07;39.10;25.60
38183;DHT22;23991;52.430;10.586;2022-08-14T15:11:32;38.90;25.50
38183;DHT22;23991;52.430;10.586;2022-08-14T15:13:59;38.80;25.60
38183;DHT22;23991;52.430;10.586;2022-08-14T15:16:24;38.80;26.00
38183;DHT22;23991;52.430;10.586;2022-08-14T15:18:51;38.60;26.50
38183;DHT22;23991;52.430;10.586;2022-08-14T15:21:17;38.50;26.50
38183;DHT22;23991;52.430;10.586;2022-08-14T15:23:42;38.50;27.30
38183;DHT22;23991;52.430;10.586;2022-08-14T15:26:09;38.40;27.20
38183;DHT22;23991;52.430;10.586;2022-08-14T15:28:38;38.50;27.10
38183;DHT22;23991;52.430;10.586;2022-08-14T15:31:04;38.10;27.60
38183;DHT22;23991;52.430;10.586;2022-08-14T15:33:30;38.20;27.70
38183;DHT22;23991;52.430;10.586;2022-08-14T15:36:14;37.90;28.60
38183;DHT22;23991;52.430;10.586;2022-08-14T15:38:40;38.00;28.60
38183;DHT22;23991;52.430;10.586;2022-08-14T15:41:06;37.80;28.90
38183;DHT22;23991;52.430;10.586;2022-08-14T15:43:32;37.60;29.00
38183;DHT22;23991;52.430;10.586;2022-08-14T15:46:06;37.50;29.00
38183;DHT22;23991;52.430;10.586;2022-08-14T15:48:33;37.60;28.60